Time;durP1;ratioP1;P1;durP2;ratioP2;P2;SDS_P1;SDS_P2;PMS_P1;PMS_P2;Temp;Humidity;BMP_temperature;BMP_pressure;BME280_temperature;BME280_humidity;BME280_pressure;Samples;Min_cycle;Max_cycle;Signal;HPM_P1;HPM_P2
2021/10/14 00:01:38;;;;;;;23.70;16.98;;;12.90;99.90;;;;;;5090045;28;38526;-78
2021/10/14 00:04:04;;;;;;;22.15;15.57;;;12.90;99.90;;;;;;5085980;28;36947;-78
2021/10/14 00:06:30;;;;;;;25.15;16.23;;;12.90;99.90;;;;;;5072728;28;39823;-78
2021/10/14 00:08:56;;;;;;;24.77;17.33;;;12.90;99.90;;;;;;5075584;28;38696;-78
2021/10/14 00:11:23;;;;;;;23.15;15.27;;;12.90;99.90;;;;;;5092079;28;37363;-78
2021/10/14 00:13:50;;;;;;;32.10;19.35;;;13.00;99.90;;;;;;5076000;28;38418;-78
2021/10/14 00:16:16;;;;;;;30.90;19.15;;;13.00;99.90;;;;;;5094458;28;38736;-78
2021/10/14 00:18:43;;;;;;;20.27;15.45;;;13.00;99.90;;;;;;5094668;28;37664;-78
2021/10/14 00:21:09;;;;;;;30.55;18.92;;;13.00;99.90;;;;;;5074351;28;37179;-77
2021/10/14 00:23:35;;;;;;;31.33;18.70;;;13.00;99.90;;;;;;5073431;28;37646;-78
2021/10/14 00:26:01;;;;;;;34.92;19.60;;;13.10;99.90;;;;;;5090804;28;37962;-77
2021/10/14 00:28:28;;;;;;;29.08;18.27;;;13.10;99.90;;;;;;5092468;28;39199;-78
2021/10/14 00:30:54;;;;;;;34.83;20.52;;;13.10;99.90;;;;;;5090292;28;38751;-78
2021/10/14 00:33:20;;;;;;;32.58;19.83;;;13.10;99.90;;;;;;5088698;28;38036;-78
2021/10/14 00:35:46;;;;;;;50.85;25.52;;;13.00;99.90;;;;;;5067532;28;39827;-77
2021/10/14 00:38:12;;;;;;;34.35;19.58;;;13.00;99.90;;;;;;5094019;28;36737;-78
2021/10/14 00:40:39;;;;;;;40.70;22.70;;;13.00;99.90;;;;;;5071128;28;38995;-78
2021/10/14 00:43:05;;;;;;;44.58;21.50;;;12.90;99.90;;;;;;5094931;28;37227;-78
2021/10/14 00:45:31;;;;;;;35.90;20.33;;;12.90;99.90;;;;;;5095102;28;38668;-78
2021/10/14 00:47:57;;;;;;;32.75;18.48;;;12.90;99.90;;;;;;5072091;28;38875;-77
2021/10/14 00:50:23;;;;;;;34.40;18.90;;;12.80;99.90;;;;;;5072876;28;39983;-78
2021/10/14 00:52:52;;;;;;;36.53;19.85;;;12.80;99.90;;;;;;5092713;28;37133;-77
2021/10/14 00:55:20;;;;;;;48.20;21.95;;;12.80;99.90;;;;;;5078184;28;40684;-77
2021/10/14 00:57:47;;;;;;;42.67;20.52;;;12.80;99.90;;;;;;5074395;28;37249;-79
2021/10/14 01:00:14;;;;;;;41.35;20.15;;;12.80;99.90;;;;;;5094262;28;37892;-77
2021/10/14 01:02:40;;;;;;;32.85;18.42;;;12.80;99.90;;;;;;5071013;28;37816;-77
2021/10/14 01:05:07;;;;;;;40.13;20.15;;;12.80;99.90;;;;;;5085329;28;38875;-77
2021/10/14 01:07:33;;;;;;;55.55;25.30;;;12.80;99.90;;;;;;5091274;28;37277;-77
2021/10/14 01:09:59;;;;;;;30.88;18.08;;;12.80;99.90;;;;;;5074137;28;37641;-77
2021/10/14 01:12:27;;;;;;;40.53;20.58;;;12.80;99.90;;;;;;5070694;28;37786;-78
2021/10/14 01:14:53;;;;;;;37.90;20.13;;;12.80;99.90;;;;;;5069640;27;38844;-77
2021/10/14 01:17:19;;;;;;;42.83;20.77;;;12.80;99.90;;;;;;5091352;28;38270;-78
2021/10/14 01:19:46;;;;;;;38.70;21.20;;;12.80;99.90;;;;;;5096109;28;38526;-78
2021/10/14 01:22:12;;;;;;;38.10;20.48;;;12.80;99.90;;;;;;5095322;28;38498;-78
2021/10/14 01:24:38;;;;;;;34.83;19.77;;;12.80;99.90;;;;;;5087644;28;39472;-78
2021/10/14 01:27:06;;;;;;;38.15;20.48;;;12.80;99.90;;;;;;5068865;28;37443;-77
2021/10/14 01:29:33;;;;;;;35.65;18.90;;;12.90;99.90;;;;;;5069229;28;37736;-77
2021/10/14 01:32:00;;;;;;;52.30;24.67;;;12.90;99.90;;;;;;5062348;28;36227;-77
2021/10/14 01:34:26;;;;;;;44.50;21.90;;;12.90;99.90;;;;;;5063076;28;40734;-77
2021/10/14 01:36:52;;;;;;;38.20;21.25;;;12.90;99.90;;;;;;5068554;28;39134;-78
2021/10/14 01:39:18;;;;;;;37.08;21.15;;;12.90;99.90;;;;;;5068396;28;37547;-78
2021/10/14 01:41:46;;;;;;;36.08;21.30;;;12.90;99.90;;;;;;5065730;28;38216;-78
2021/10/14 01:44:13;;;;;;;42.72;23.15;;;13.00;99.90;;;;;;5067017;28;40598;-77
2021/10/14 01:46:39;;;;;;;38.20;21.65;;;13.00;99.90;;;;;;5071038;28;38214;-77
2021/10/14 01:49:06;;;;;;;37.92;19.15;;;13.00;99.90;;;;;;5061542;28;38681;-77
2021/10/14 01:51:32;;;;;;;38.83;22.55;;;13.00;99.90;;;;;;5071123;28;37439;-77
2021/10/14 01:53:58;;;;;;;34.42;20.42;;;13.00;99.90;;;;;;5070670;28;38841;-78
2021/10/14 01:56:25;;;;;;;42.95;22.48;;;13.00;99.90;;;;;;5063316;28;37328;-78
2021/10/14 01:58:51;;;;;;;39.20;21.05;;;13.00;99.90;;;;;;5069085;28;37832;-78
2021/10/14 02:01:17;;;;;;;28.60;19.92;;;13.10;99.90;;;;;;5066082;28;38145;-78
2021/10/14 02:03:43;;;;;;;37.60;20.05;;;13.10;99.90;;;;;;5069488;28;39112;-78
2021/10/14 02:06:09;;;;;;;39.97;21.77;;;13.10;99.90;;;;;;5064319;28;38626;-78
2021/10/14 02:08:35;;;;;;;39.10;20.35;;;13.10;99.90;;;;;;5068226;28;37707;-78
2021/10/14 02:11:01;;;;;;;45.63;22.38;;;13.10;99.90;;;;;;5068946;28;37834;-76
2021/10/14 02:13:27;;;;;;;35.38;19.90;;;13.10;99.90;;;;;;5067725;28;38797;-78
2021/10/14 02:15:53;;;;;;;31.55;19.55;;;13.10;99.90;;;;;;5062047;28;39361;-78
2021/10/14 02:18:19;;;;;;;34.15;22.10;;;13.10;99.90;;;;;;5072183;28;38918;-77
2021/10/14 02:20:45;;;;;;;38.83;21.95;;;13.20;99.90;;;;;;5066185;28;37001;-78
2021/10/14 02:23:11;;;;;;;29.35;18.08;;;13.20;99.90;;;;;;5069819;28;39559;-78
2021/10/14 02:25:38;;;;;;;30.58;18.52;;;13.20;99.90;;;;;;5086059;28;37817;-78
2021/10/14 02:28:04;;;;;;;31.02;17.55;;;13.20;99.90;;;;;;5089743;27;39107;-78
2021/10/14 02:30:30;;;;;;;30.05;17.23;;;13.20;99.90;;;;;;5076788;28;38401;-78
2021/10/14 02:32:56;;;;;;;34.35;18.38;;;13.20;99.90;;;;;;5072775;28;37840;-78
2021/10/14 02:35:22;;;;;;;36.13;17.38;;;13.20;99.90;;;;;;5068618;28;39266;-78
2021/10/14 02:37:48;;;;;;;36.38;20.17;;;13.20;99.90;;;;;;5090636;28;37805;-77
2021/10/14 02:40:14;;;;;;;37.28;18.25;;;13.10;99.90;;;;;;5087864;28;36110;-78
2021/10/14 02:42:40;;;;;;;27.23;17.15;;;13.20;99.90;;;;;;5071140;28;38876;-78
2021/10/14 02:45:07;;;;;;;27.73;15.77;;;13.20;99.90;;;;;;5085930;28;36452;-78
2021/10/14 02:47:33;;;;;;;31.73;18.80;;;13.20;99.90;;;;;;5092713;28;38196;-78
2021/10/14 02:49:59;;;;;;;33.45;19.20;;;13.20;99.90;;;;;;5089281;28;38265;-78
2021/10/14 02:52:25;;;;;;;28.40;17.08;;;13.20;99.90;;;;;;5093498;28;39189;-78
2021/10/14 02:54:51;;;;;;;27.13;16.45;;;13.30;99.90;;;;;;5089071;28;38541;-77
2021/10/14 02:57:17;;;;;;;41.15;20.75;;;13.30;99.90;;;;;;5069974;28;39568;-78
2021/10/14 02:59:43;;;;;;;33.00;18.58;;;13.30;99.90;;;;;;5072885;28;39391;-78
2021/10/14 03:02:09;;;;;;;34.40;20.83;;;13.40;99.90;;;;;;5091244;28;39037;-78
2021/10/14 03:04:35;;;;;;;34.38;20.85;;;13.40;99.90;;;;;;5074180;28;39807;-77
2021/10/14 03:07:01;;;;;;;31.17;20.52;;;13.40;99.90;;;;;;5090671;28;39236;-78
2021/10/14 03:09:27;;;;;;;38.70;22.27;;;13.40;99.90;;;;;;5071897;28;46706;-78
2021/10/14 03:11:53;;;;;;;41.97;21.63;;;13.40;99.90;;;;;;5093466;28;39584;-78
2021/10/14 03:14:19;;;;;;;39.90;23.35;;;13.50;99.90;;;;;;5091085;28;38519;-78
2021/10/14 03:16:46;;;;;;;42.67;23.95;;;13.50;99.90;;;;;;5071647;28;37449;-78
2021/10/14 03:19:12;;;;;;;47.47;27.00;;;13.50;99.90;;;;;;5068085;28;40044;-77
2021/10/14 03:21:38;;;;;;;48.63;27.63;;;13.50;99.90;;;;;;5069363;28;39855;-77
2021/10/14 03:24:04;;;;;;;45.15;25.20;;;13.60;99.90;;;;;;5064169;28;38766;-77
2021/10/14 03:26:30;;;;;;;38.13;22.45;;;13.60;99.90;;;;;;5088881;28;38391;-77
2021/10/14 03:28:56;;;;;;;37.70;23.83;;;13.60;99.90;;;;;;5080646;28;38280;-78
2021/10/14 03:31:22;;;;;;;42.38;24.98;;;13.60;99.90;;;;;;5071626;28;39304;-77
2021/10/14 03:33:48;;;;;;;55.65;28.75;;;13.70;99.90;;;;;;5070352;28;40122;-78
2021/10/14 03:36:15;;;;;;;32.38;20.73;;;13.70;99.90;;;;;;5086928;28;37869;-78
2021/10/14 03:38:41;;;;;;;41.80;24.70;;;13.70;99.90;;;;;;5073706;28;39204;-77
2021/10/14 03:41:07;;;;;;;39.35;23.65;;;13.70;99.90;;;;;;5072698;28;40086;-77
2021/10/14 03:43:33;;;;;;;46.58;26.27;;;13.70;99.90;;;;;;5088745;28;37509;-78
2021/10/14 03:45:59;;;;;;;52.03;28.05;;;13.70;99.90;;;;;;5068664;28;39958;-78
2021/10/14 03:48:25;;;;;;;37.20;23.63;;;13.80;99.90;;;;;;5068680;28;39076;-78
2021/10/14 03:50:51;;;;;;;38.47;23.90;;;13.80;99.90;;;;;;5091459;28;38478;-78
2021/10/14 03:53:17;;;;;;;52.20;28.80;;;13.80;99.90;;;;;;5072739;28;39395;-77
2021/10/14 03:55:43;;;;;;;43.05;25.27;;;13.80;99.90;;;;;;5070529;28;37956;-77
2021/10/14 03:58:10;;;;;;;41.13;24.88;;;13.90;99.90;;;;;;5088628;28;37345;-78
2021/10/14 04:00:36;;;;;;;42.70;25.73;;;13.90;99.90;;;;;;5069924;28;39450;-77
2021/10/14 04:03:02;;;;;;;35.55;22.50;;;13.90;99.90;;;;;;5095372;28;38149;-77
2021/10/14 04:05:28;;;;;;;47.03;26.77;;;14.00;99.90;;;;;;5072922;28;38974;-77
2021/10/14 04:07:54;;;;;;;40.28;24.58;;;14.00;99.90;;;;;;5093453;28;37458;-77
2021/10/14 04:10:20;;;;;;;42.78;25.10;;;14.00;99.90;;;;;;5072948;28;39427;-78
2021/10/14 04:12:46;;;;;;;53.95;27.83;;;14.00;99.90;;;;;;5095349;28;38699;-78
2021/10/14 04:15:13;;;;;;;42.20;25.17;;;14.00;99.90;;;;;;5093350;28;38121;-78
2021/10/14 04:17:39;;;;;;;46.55;24.40;;;14.10;99.90;;;;;;5075276;28;38174;-78
2021/10/14 04:20:05;;;;;;;41.00;24.58;;;14.10;99.90;;;;;;5091373;28;38613;-77
2021/10/14 04:22:31;;;;;;;48.63;26.08;;;14.10;99.90;;;;;;5097160;28;37838;-78
2021/10/14 04:24:58;;;;;;;48.25;26.55;;;14.10;99.90;;;;;;5073998;28;38904;-77
2021/10/14 04:27:24;;;;;;;39.10;23.52;;;14.10;99.90;;;;;;5092109;28;37396;-77
2021/10/14 04:29:50;;;;;;;36.30;23.48;;;14.10;99.90;;;;;;5075534;28;38514;-78
2021/10/14 04:32:16;;;;;;;45.75;26.13;;;14.10;99.90;;;;;;5091209;28;38633;-77
2021/10/14 04:34:42;;;;;;;52.22;27.15;;;14.10;99.90;;;;;;5089783;28;36987;-77
2021/10/14 04:37:09;;;;;;;39.33;23.00;;;14.10;99.90;;;;;;5073083;28;38187;-77
2021/10/14 04:39:36;;;;;;;47.55;24.80;;;14.20;99.90;;;;;;5073243;28;39579;-78
2021/10/14 04:42:03;;;;;;;38.00;23.70;;;14.20;99.90;;;;;;5089767;27;38827;-77
2021/10/14 04:44:30;;;;;;;46.63;25.33;;;14.20;99.90;;;;;;5089310;28;36999;-77
2021/10/14 04:46:56;;;;;;;53.00;26.75;;;14.20;99.90;;;;;;5090762;28;38500;-77
2021/10/14 04:49:22;;;;;;;40.33;24.58;;;14.20;99.90;;;;;;5076388;28;38774;-77
2021/10/14 04:51:48;;;;;;;34.88;21.98;;;14.30;99.90;;;;;;5074456;28;38462;-77
2021/10/14 04:54:14;;;;;;;38.25;22.05;;;14.30;99.90;;;;;;5090910;28;38205;-78
2021/10/14 04:56:40;;;;;;;35.47;21.55;;;14.30;99.90;;;;;;5088235;28;37855;-77
2021/10/14 04:59:06;;;;;;;42.45;24.08;;;14.20;99.90;;;;;;5089791;28;39071;-77
2021/10/14 05:01:32;;;;;;;57.20;27.98;;;14.30;99.90;;;;;;5087429;28;39121;-78
2021/10/14 05:03:59;;;;;;;50.30;26.58;;;14.30;99.90;;;;;;5088594;28;38174;-78
2021/10/14 05:06:25;;;;;;;46.85;25.10;;;14.30;99.90;;;;;;5090261;28;38150;-77
2021/10/14 05:08:51;;;;;;;45.05;24.13;;;14.30;99.90;;;;;;5094191;28;38889;-77
2021/10/14 05:11:17;;;;;;;48.25;24.63;;;14.30;99.90;;;;;;5077960;28;39301;-77
2021/10/14 05:13:43;;;;;;;49.17;24.25;;;14.30;99.90;;;;;;5073329;28;40814;-78
2021/10/14 05:16:09;;;;;;;44.63;24.73;;;14.30;99.90;;;;;;5071260;28;36237;-77
2021/10/14 05:18:35;;;;;;;46.00;25.50;;;14.30;99.90;;;;;;5091522;28;38503;-78
2021/10/14 05:21:01;;;;;;;36.05;22.67;;;14.30;99.90;;;;;;5070458;28;39669;-77
2021/10/14 05:23:28;;;;;;;47.92;23.70;;;14.40;99.90;;;;;;5089972;28;47713;-77
2021/10/14 05:25:55;;;;;;;62.70;29.63;;;14.30;99.90;;;;;;5067459;28;37264;-77
2021/10/14 05:28:21;;;;;;;41.28;23.40;;;14.30;99.90;;;;;;5099926;28;39843;-77
2021/10/14 05:30:49;;;;;;;36.20;22.63;;;14.30;99.90;;;;;;5073288;28;39087;-78
2021/10/14 05:33:15;;;;;;;39.97;21.58;;;14.30;99.90;;;;;;5071309;28;37573;-77
2021/10/14 05:35:41;;;;;;;32.25;19.65;;;14.40;99.90;;;;;;5072734;28;36251;-77
2021/10/14 05:38:08;;;;;;;33.55;20.25;;;14.40;99.90;;;;;;5093503;28;39679;-77
2021/10/14 05:40:34;;;;;;;35.83;22.70;;;14.30;99.90;;;;;;5090378;28;39320;-78
2021/10/14 05:43:01;;;;;;;37.33;22.88;;;14.40;99.90;;;;;;5093617;28;37926;-78
2021/10/14 05:45:28;;;;;;;37.95;22.67;;;14.40;99.90;;;;;;5082997;28;46979;-77
2021/10/14 05:47:54;;;;;;;53.83;24.80;;;14.30;99.90;;;;;;5076929;28;40505;-78
2021/10/14 05:50:20;;;;;;;30.98;18.70;;;14.40;99.90;;;;;;5100528;28;39310;-77
2021/10/14 05:52:46;;;;;;;36.90;19.50;;;14.40;99.90;;;;;;5086015;28;37348;-78
2021/10/14 05:55:12;;;;;;;27.48;17.10;;;14.30;99.90;;;;;;5103087;28;36155;-78
2021/10/14 05:57:38;;;;;;;24.48;16.05;;;14.30;99.90;;;;;;5074507;28;37481;-78
2021/10/14 06:00:05;;;;;;;31.77;19.42;;;14.30;99.90;;;;;;5099454;28;38634;-80
2021/10/14 06:02:31;;;;;;;35.20;18.88;;;14.30;99.90;;;;;;5096206;28;38861;-80
2021/10/14 06:04:57;;;;;;;27.73;16.13;;;14.30;99.90;;;;;;5098764;28;38326;-80
2021/10/14 06:07:25;;;;;;;29.90;16.80;;;14.30;99.90;;;;;;5086183;28;37991;-80
2021/10/14 06:09:51;;;;;;;25.02;15.43;;;14.30;99.90;;;;;;5080931;28;39162;-81
2021/10/14 06:12:20;;;;;;;27.95;15.55;;;14.30;99.90;;;;;;5081218;27;38811;-80
2021/10/14 06:14:46;;;;;;;25.65;15.43;;;14.30;99.90;;;;;;5078974;28;38860;-80
2021/10/14 06:17:12;;;;;;;27.67;16.85;;;14.30;99.90;;;;;;5076455;27;41255;-80
2021/10/14 06:19:38;;;;;;;37.50;19.33;;;14.30;99.90;;;;;;5074906;28;38644;-80
2021/10/14 06:22:04;;;;;;;35.92;17.63;;;14.30;99.90;;;;;;5099787;28;38983;-80
2021/10/14 06:24:30;;;;;;;28.60;16.58;;;14.30;99.90;;;;;;5101453;28;37325;-80
2021/10/14 06:26:57;;;;;;;41.13;18.42;;;14.30;99.90;;;;;;5078462;28;38441;-80
2021/10/14 06:29:23;;;;;;;23.27;13.52;;;14.30;99.90;;;;;;5085443;28;38077;-80
2021/10/14 06:31:50;;;;;;;27.92;16.25;;;14.30;99.90;;;;;;5101826;28;38649;-80
2021/10/14 06:34:16;;;;;;;27.90;14.90;;;14.30;99.90;;;;;;5097569;28;35584;-80
2021/10/14 06:36:42;;;;;;;19.90;13.20;;;14.30;99.90;;;;;;5077192;28;40054;-80
2021/10/14 06:39:08;;;;;;;23.13;13.80;;;14.30;99.90;;;;;;5107474;28;39315;-80
2021/10/14 06:41:35;;;;;;;25.35;14.68;;;14.30;99.90;;;;;;5090114;28;39483;-80
2021/10/14 06:44:01;;;;;;;25.08;15.27;;;14.30;99.90;;;;;;5091474;28;37726;-80
2021/10/14 06:46:27;;;;;;;23.73;14.35;;;14.30;99.90;;;;;;5099412;28;48912;-80
2021/10/14 06:48:53;;;;;;;25.20;14.73;;;14.30;99.90;;;;;;5085553;28;39593;-80
2021/10/14 06:51:19;;;;;;;24.48;14.18;;;14.30;99.90;;;;;;5081229;28;39241;-80
2021/10/14 06:53:46;;;;;;;25.83;13.40;;;14.30;99.90;;;;;;5084061;28;38002;-80
2021/10/14 06:56:12;;;;;;;26.67;15.73;;;14.30;99.90;;;;;;5084618;28;39870;-80
2021/10/14 06:58:38;;;;;;;21.77;14.52;;;14.30;99.90;;;;;;5109260;28;38192;-80
2021/10/14 07:01:04;;;;;;;27.80;14.75;;;14.30;99.90;;;;;;5107130;28;38063;-80
2021/10/14 07:03:30;;;;;;;29.90;16.92;;;14.30;99.90;;;;;;5075823;28;37910;-80
2021/10/14 07:05:56;;;;;;;26.42;16.80;;;14.30;99.90;;;;;;5077316;28;40248;-80
2021/10/14 07:08:22;;;;;;;33.42;18.20;;;14.30;99.90;;;;;;5084857;28;38874;-80
2021/10/14 07:10:48;;;;;;;31.60;18.25;;;14.40;99.90;;;;;;5107845;28;38177;-80
2021/10/14 07:13:15;;;;;;;27.33;17.45;;;14.40;99.90;;;;;;5107001;27;37444;-80
2021/10/14 07:15:41;;;;;;;38.70;19.08;;;14.40;99.90;;;;;;5096344;28;40421;-80
2021/10/14 07:18:08;;;;;;;39.25;20.70;;;14.40;99.90;;;;;;5095711;28;37831;-80
2021/10/14 07:20:36;;;;;;;35.45;20.48;;;14.40;99.90;;;;;;5102360;28;38287;-80
2021/10/14 07:23:11;;;;;;;32.10;20.42;;;14.40;99.90;;;;;;5083194;28;38399;-79
2021/10/14 07:25:42;;;;;;;31.55;18.45;;;14.40;99.90;;;;;;5084603;28;39834;-80
2021/10/14 07:28:09;;;;;;;53.22;24.83;;;14.30;99.90;;;;;;5108237;28;38253;-80
2021/10/14 07:30:37;;;;;;;46.60;23.55;;;14.40;99.90;;;;;;5085945;28;39872;-80
2021/10/14 07:33:04;;;;;;;36.22;22.17;;;14.40;99.90;;;;;;5087480;28;37481;-79
2021/10/14 07:35:33;;;;;;;32.38;20.58;;;14.30;99.90;;;;;;5104993;28;38902;-80
2021/10/14 07:38:00;;;;;;;38.47;23.05;;;14.40;99.90;;;;;;5105894;28;38232;-80
2021/10/14 07:40:27;;;;;;;39.97;24.15;;;14.40;99.90;;;;;;5110871;28;40041;-80
2021/10/14 07:42:53;;;;;;;56.00;28.13;;;14.30;99.90;;;;;;5110984;28;38734;-80
2021/10/14 07:45:19;;;;;;;38.33;23.08;;;14.40;99.90;;;;;;5080963;28;39323;-80
2021/10/14 07:47:45;;;;;;;40.38;21.63;;;14.40;99.90;;;;;;5086472;28;38905;-79
2021/10/14 07:50:12;;;;;;;37.15;22.42;;;14.40;99.90;;;;;;5109683;28;39054;-79
2021/10/14 07:52:41;;;;;;;36.95;23.67;;;14.40;99.90;;;;;;5104149;28;38066;-80
2021/10/14 07:55:09;;;;;;;32.38;21.52;;;14.30;99.90;;;;;;5103652;28;38669;-79
2021/10/14 07:57:35;;;;;;;41.75;25.23;;;14.30;99.90;;;;;;5105062;27;38420;-80
2021/10/14 08:00:03;;;;;;;34.25;22.10;;;14.30;99.90;;;;;;5089867;28;37112;-78
2021/10/14 08:02:29;;;;;;;43.33;24.20;;;14.30;99.90;;;;;;5088345;28;38237;-80
2021/10/14 08:04:55;;;;;;;38.85;22.92;;;14.30;99.90;;;;;;5100068;28;38753;-79
2021/10/14 08:07:22;;;;;;;49.65;28.25;;;14.30;99.90;;;;;;5091576;28;38144;-79
2021/10/14 08:09:49;;;;;;;42.58;26.05;;;14.30;99.90;;;;;;5097370;28;38773;-80
2021/10/14 08:12:15;;;;;;;37.95;24.23;;;14.30;99.90;;;;;;5099921;28;38346;-80
2021/10/14 08:14:41;;;;;;;38.30;24.13;;;14.30;99.90;;;;;;5078469;28;39938;-80
2021/10/14 08:17:07;;;;;;;42.28;25.50;;;14.30;99.90;;;;;;5080383;28;39893;-79
2021/10/14 08:19:33;;;;;;;39.53;25.63;;;14.30;99.90;;;;;;5095422;28;37808;-79
2021/10/14 08:21:59;;;;;;;44.67;27.17;;;14.30;99.90;;;;;;5100056;28;37395;-80
2021/10/14 08:24:25;;;;;;;38.00;25.35;;;14.30;99.90;;;;;;5094904;28;38761;-80
2021/10/14 08:26:51;;;;;;;42.97;25.85;;;14.30;99.90;;;;;;5093572;28;37967;-80
2021/10/14 08:29:17;;;;;;;43.65;26.20;;;14.30;99.90;;;;;;5093165;28;38445;-80
2021/10/14 08:31:44;;;;;;;41.28;27.23;;;14.40;99.90;;;;;;5093368;28;37513;-79
2021/10/14 08:34:10;;;;;;;36.13;24.30;;;14.40;99.90;;;;;;5076583;28;39464;-79
2021/10/14 08:36:36;;;;;;;51.38;26.67;;;14.40;99.90;;;;;;5095981;28;37560;-79
2021/10/14 08:39:03;;;;;;;47.97;27.88;;;14.40;99.90;;;;;;5095348;28;37610;-79
2021/10/14 08:41:29;;;;;;;49.20;28.40;;;14.40;99.90;;;;;;5096241;28;40642;-79
2021/10/14 08:43:57;;;;;;;48.10;24.80;;;14.50;99.90;;;;;;5080875;28;40977;-79
2021/10/14 08:46:23;;;;;;;49.25;28.20;;;14.50;99.90;;;;;;5094761;28;38874;-79
2021/10/14 08:48:49;;;;;;;44.28;29.33;;;14.50;99.90;;;;;;5073952;28;39549;-80
2021/10/14 08:51:15;;;;;;;52.75;29.05;;;14.50;99.90;;;;;;5073997;28;38686;-79
2021/10/14 08:53:44;;;;;;;38.78;23.77;;;14.60;99.90;;;;;;5091735;28;38918;-79
2021/10/14 08:56:11;;;;;;;43.35;26.17;;;14.70;99.90;;;;;;5074780;28;36953;-79
2021/10/14 08:58:37;;;;;;;39.78;23.52;;;14.80;99.90;;;;;;5094368;28;38234;-79
2021/10/14 09:01:14;;;;;;;43.72;23.48;;;14.90;99.90;;;;;;5079345;28;38315;-80
2021/10/14 09:03:45;;;;;;;42.75;24.00;;;15.00;99.90;;;;;;5073578;28;39654;-80
2021/10/14 09:06:12;;;;;;;35.25;21.88;;;15.10;99.90;;;;;;5077526;28;39349;-80
2021/10/14 09:08:43;;;;;;;32.78;22.40;;;15.10;99.90;;;;;;5094601;28;39692;-79
2021/10/14 09:11:16;;;;;;;33.50;21.35;;;15.10;99.90;;;;;;5068931;28;37811;-79
2021/10/14 09:13:57;;;;;;;31.33;19.83;;;15.10;99.90;;;;;;5100496;28;39556;-79
2021/10/14 09:16:36;;;;;;;34.50;21.65;;;15.00;99.90;;;;;;5092195;28;38703;-79
2021/10/14 09:19:19;;;;;;;34.50;22.38;;;15.00;99.90;;;;;;5075164;28;38845;-79
2021/10/14 09:21:50;;;;;;;33.05;22.42;;;15.00;99.90;;;;;;5076937;28;39132;-79
2021/10/14 09:24:35;;;;;;;33.80;22.50;;;15.10;99.90;;;;;;5070430;28;39386;-79
2021/10/14 09:27:13;;;;;;;31.98;20.48;;;15.20;99.90;;;;;;5087778;28;38938;-80
2021/10/14 09:29:40;;;;;;;30.25;19.50;;;15.20;99.90;;;;;;5104821;28;49953;-80
2021/10/14 09:32:15;;;;;;;28.60;18.73;;;15.20;99.90;;;;;;5069966;28;38692;-79
2021/10/14 09:34:50;;;;;;;27.25;18.23;;;15.40;99.90;;;;;;5096255;28;38474;-79
2021/10/14 09:37:16;;;;;;;25.38;17.73;;;15.40;99.90;;;;;;5075656;28;39197;-79
2021/10/14 09:40:00;;;;;;;26.35;16.98;;;15.40;99.90;;;;;;5104713;28;38289;-79
2021/10/14 09:43:00;;;;;;;23.83;17.58;;;15.40;99.90;;;;;;5106609;28;38750;-79
2021/10/14 09:45:33;;;;;;;28.30;17.10;;;15.40;99.90;;;;;;5089842;28;48299;-79
2021/10/14 09:48:05;;;;;;;28.50;18.17;;;15.40;99.90;;;;;;5071266;28;38950;-79
2021/10/14 09:50:33;;;;;;;26.50;16.77;;;15.40;99.90;;;;;;5098597;28;49186;-79
2021/10/14 09:53:00;;;;;;;32.78;18.50;;;15.50;99.90;;;;;;5109478;28;37085;-79
2021/10/14 09:55:27;;;;;;;28.02;19.13;;;15.50;99.90;;;;;;5080612;28;40446;-79
2021/10/14 09:57:55;;;;;;;28.17;17.17;;;15.50;99.90;;;;;;5090912;28;38970;-79
2021/10/14 10:00:22;;;;;;;24.67;17.08;;;15.40;99.90;;;;;;5081958;28;38118;-79
2021/10/14 10:02:52;;;;;;;26.65;18.98;;;15.40;99.90;;;;;;5078614;28;38819;-79
2021/10/14 10:05:18;;;;;;;25.75;18.77;;;15.40;99.90;;;;;;5103689;27;39388;-79
2021/10/14 10:07:49;;;;;;;24.73;17.02;;;15.40;99.90;;;;;;5107519;27;38519;-79
2021/10/14 10:10:18;;;;;;;25.83;18.45;;;15.40;99.90;;;;;;5088401;28;39144;-78
2021/10/14 10:12:46;;;;;;;27.30;17.92;;;15.50;99.90;;;;;;5085145;27;37708;-79
2021/10/14 10:15:12;;;;;;;25.75;17.95;;;15.80;99.90;;;;;;5098832;28;40038;-78
2021/10/14 10:17:41;;;;;;;32.63;20.25;;;16.00;99.90;;;;;;5076217;28;37867;-79
2021/10/14 10:20:10;;;;;;;28.15;19.30;;;15.90;99.90;;;;;;5085440;28;38697;-79
2021/10/14 10:22:36;;;;;;;24.35;16.70;;;15.80;99.90;;;;;;5100239;28;37656;-79
2021/10/14 10:25:33;;;;;;;30.33;17.55;;;15.60;99.90;;;;;;5099453;28;38557;-79
2021/10/14 10:28:01;;;;;;;31.08;19.90;;;15.60;99.90;;;;;;5081731;28;46950;-79
2021/10/14 10:30:37;;;;;;;26.85;19.05;;;15.60;99.90;;;;;;5094357;28;38286;-79
2021/10/14 10:33:06;;;;;;;33.08;19.80;;;15.50;99.90;;;;;;5086980;28;39355;-78
2021/10/14 10:35:43;;;;;;;29.30;19.17;;;15.50;99.90;;;;;;5090530;28;38549;-79
2021/10/14 10:38:14;;;;;;;28.02;20.20;;;15.70;99.90;;;;;;5069369;28;38807;-79
2021/10/14 10:40:42;;;;;;;30.13;19.33;;;15.70;99.90;;;;;;5105428;28;39606;-78
2021/10/14 10:43:11;;;;;;;29.63;19.73;;;15.80;99.90;;;;;;5097210;28;37422;-79
2021/10/14 10:45:52;;;;;;;28.55;19.45;;;15.80;99.90;;;;;;5077124;28;39571;-79
2021/10/14 10:48:36;;;;;;;24.48;17.20;;;15.80;99.90;;;;;;5106040;28;38260;-79
2021/10/14 10:51:03;;;;;;;31.95;20.55;;;15.90;99.90;;;;;;5071132;28;38865;-79
2021/10/14 10:53:48;;;;;;;27.55;18.67;;;16.00;99.90;;;;;;5099280;28;37916;-79
2021/10/14 10:56:33;;;;;;;28.10;18.85;;;16.10;99.90;;;;;;5090875;28;39654;-79
2021/10/14 10:59:01;;;;;;;26.83;18.27;;;16.20;99.90;;;;;;5092673;28;38625;-79
2021/10/14 11:01:27;;;;;;;25.90;19.02;;;16.30;99.90;;;;;;5084640;28;39261;-79
2021/10/14 11:03:59;;;;;;;27.65;17.67;;;16.60;99.90;;;;;;5095387;28;37210;-79
2021/10/14 11:06:30;;;;;;;25.73;17.45;;;16.80;99.90;;;;;;5093167;28;39843;-78
2021/10/14 11:09:05;;;;;;;24.30;16.88;;;16.90;99.90;;;;;;5092093;28;39183;-79
2021/10/14 11:11:33;;;;;;;25.80;16.17;;;17.00;99.90;;;;;;5085624;28;48082;-79
2021/10/14 11:13:59;;;;;;;25.60;17.25;;;16.90;99.90;;;;;;5087049;28;37775;-79
2021/10/14 11:16:29;;;;;;;22.75;15.32;;;16.70;99.90;;;;;;5085341;28;38319;-79
2021/10/14 11:18:58;;;;;;;18.13;13.70;;;16.70;99.90;;;;;;5095210;28;38683;-79
2021/10/14 11:21:27;;;;;;;26.55;15.10;;;16.90;99.90;;;;;;5086605;28;38445;-78
2021/10/14 11:23:57;;;;;;;21.65;12.90;;;16.90;99.90;;;;;;5076164;28;38308;-78
2021/10/14 11:26:33;;;;;;;21.85;13.80;;;16.90;99.90;;;;;;5092524;28;38842;-79
2021/10/14 11:29:11;;;;;;;22.23;13.68;;;17.00;99.90;;;;;;5081296;28;39111;-79
2021/10/14 11:32:11;;;;;;;24.80;13.07;;;17.00;99.90;;;;;;5066624;28;48178;-79
2021/10/14 11:34:37;;;;;;;24.85;12.85;;;17.00;99.90;;;;;;5061737;28;48091;-80
2021/10/14 11:37:09;;;;;;;17.80;12.52;;;16.90;99.90;;;;;;5093204;28;38908;-79
2021/10/14 11:39:42;;;;;;;18.45;11.48;;;17.00;99.90;;;;;;5071287;28;39222;-80
2021/10/14 11:42:16;;;;;;;17.08;11.07;;;17.00;99.90;;;;;;5076402;28;39111;-79
2021/10/14 11:44:47;;;;;;;16.77;11.20;;;17.00;99.90;;;;;;5110572;28;37518;-80
2021/10/14 11:47:15;;;;;;;21.95;10.93;;;17.00;99.90;;;;;;5103577;28;38654;-79
2021/10/14 11:49:42;;;;;;;18.40;10.57;;;17.10;99.90;;;;;;5087343;28;39281;-79
2021/10/14 11:52:16;;;;;;;19.67;10.85;;;17.20;99.90;;;;;;5100227;28;39445;-79
2021/10/14 11:54:42;;;;;;;20.85;10.65;;;17.20;99.90;;;;;;5076358;28;36627;-80
2021/10/14 11:57:09;;;;;;;17.90;10.60;;;17.20;99.90;;;;;;5095902;28;38467;-81
2021/10/14 11:59:35;;;;;;;15.75;10.77;;;17.20;99.90;;;;;;5079462;28;38161;-80
2021/10/14 12:02:13;;;;;;;16.15;8.90;;;17.10;99.90;;;;;;5082614;28;37433;-80
2021/10/14 12:04:46;;;;;;;15.70;9.85;;;17.10;99.90;;;;;;5104432;28;49792;-80
2021/10/14 12:07:22;;;;;;;15.75;9.15;;;16.90;99.90;;;;;;5104994;28;38368;-79
2021/10/14 12:09:49;;;;;;;15.60;8.93;;;16.70;99.90;;;;;;5104536;28;37383;-79
2021/10/14 12:12:20;;;;;;;12.60;9.00;;;16.60;99.90;;;;;;5110777;28;37954;-79
2021/10/14 12:14:47;;;;;;;13.10;8.85;;;16.50;99.90;;;;;;5090522;28;37489;-79
2021/10/14 12:17:16;;;;;;;19.95;10.50;;;16.60;99.90;;;;;;5081986;28;37646;-79
2021/10/14 12:19:43;;;;;;;20.67;11.25;;;16.70;99.90;;;;;;5107691;28;39187;-79
2021/10/14 12:22:14;;;;;;;15.50;9.43;;;16.70;99.90;;;;;;5104102;28;37863;-79
2021/10/14 12:25:01;;;;;;;13.38;9.05;;;16.80;99.90;;;;;;5076073;28;38631;-80
2021/10/14 12:27:50;;;;;;;14.35;8.98;;;16.90;99.90;;;;;;5092447;28;47135;-79
2021/10/14 12:30:23;;;;;;;13.90;9.10;;;16.90;99.90;;;;;;5099503;28;38558;-79
2021/10/14 12:32:51;;;;;;;14.10;8.40;;;17.00;99.90;;;;;;5074007;28;37131;-79